createdAt,value
2023-02-12T00:02:42.987Z,98.78
2023-02-12T00:06:15.747Z,98.87
2023-02-12T00:09:43.533Z,99.35
2023-02-12T00:13:11.037Z,99.14
2023-02-12T00:16:38.603Z,99.46
2023-02-12T00:20:07.426Z,99.57
2023-02-12T00:23:35.168Z,99.63
2023-02-12T00:27:02.412Z,99.85
2023-02-12T00:30:30.287Z,100.00
2023-02-12T00:33:58.222Z,100.00
2023-02-12T00:37:27.825Z,100.00
2023-02-12T00:40:55.441Z,100.00
2023-02-12T00:44:25.795Z,100.00
2023-02-12T00:47:53.117Z,100.00
2023-02-12T00:51:20.386Z,100.00
2023-02-12T00:54:47.828Z,100.00
2023-02-12T00:58:18.875Z,100.00
2023-02-12T01:01:46.300Z,100.00
2023-02-12T01:05:13.805Z,100.00
2023-02-12T01:08:44.710Z,100.00
2023-02-12T01:12:12.448Z,100.00
2023-02-12T01:15:39.712Z,100.00
2023-02-12T01:19:07.198Z,100.00
2023-02-12T01:22:34.964Z,100.00
2023-02-12T01:26:05.128Z,100.00
2023-02-12T01:29:32.235Z,100.00
2023-02-12T01:33:01.470Z,100.00
2023-02-12T01:36:29.877Z,100.00
2023-02-12T01:39:57.256Z,100.00
2023-02-12T01:43:24.417Z,100.00
2023-02-12T01:46:58.003Z,100.00
2023-02-12T01:50:25.440Z,100.00
2023-02-12T01:53:57.949Z,100.00
2023-02-12T01:57:26.046Z,100.00
2023-02-12T02:00:53.653Z,100.00
2023-02-12T02:04:24.879Z,100.00
2023-02-12T02:07:52.119Z,100.00
2023-02-12T02:11:37.135Z,100.00
2023-02-12T02:15:09.066Z,100.00
2023-02-12T02:18:42.440Z,100.00
2023-02-12T02:22:25.679Z,100.00
2023-02-12T02:26:12.142Z,100.00
2023-02-12T02:30:02.040Z,100.00
2023-02-12T02:33:41.480Z,100.00
2023-02-12T02:37:19.645Z,100.00
2023-02-12T02:40:54.615Z,100.00
2023-02-12T02:44:50.196Z,100.00
2023-02-12T02:48:24.482Z,100.00
2023-02-12T02:52:05.019Z,100.00
2023-02-12T02:55:39.038Z,100.00
2023-02-12T02:59:11.142Z,99.94
2023-02-12T03:02:42.804Z,100.00
2023-02-12T03:06:17.153Z,99.94
2023-02-12T03:09:48.299Z,99.99
2023-02-12T03:13:19.721Z,99.83
2023-02-12T03:16:55.517Z,99.73
2023-02-12T03:20:25.996Z,99.69
2023-02-12T03:23:59.366Z,99.51
2023-02-12T03:27:32.828Z,99.28
2023-02-12T03:31:12.133Z,99.08
2023-02-12T03:34:56.282Z,98.93
2023-02-12T03:38:32.170Z,98.92
2023-02-12T03:42:07.011Z,98.69
2023-02-12T03:45:43.920Z,98.63
2023-02-12T03:49:28.158Z,98.53
2023-02-12T03:52:55.611Z,98.18
2023-02-12T03:56:27.009Z,98.25
2023-02-12T03:59:54.634Z,98.24
2023-02-12T04:03:22.503Z,98.10
2023-02-12T04:06:51.665Z,98.01
2023-02-12T04:10:20.868Z,98.13
2023-02-12T04:14:00.890Z,98.02
2023-02-12T04:17:38.491Z,97.90
2023-02-12T04:21:13.791Z,98.01
2023-02-12T04:24:51.473Z,97.73
2023-02-12T04:28:29.616Z,97.78
2023-02-12T04:32:01.780Z,97.73
2023-02-12T04:35:33.895Z,97.62
2023-02-12T04:39:04.527Z,97.51
2023-02-12T04:42:42.043Z,97.55
2023-02-12T04:46:10.678Z,97.35
2023-02-12T04:49:40.252Z,97.36
2023-02-12T04:53:27.815Z,97.25
2023-02-12T04:56:55.176Z,97.24
2023-02-12T05:00:23.446Z,97.38
2023-02-12T05:03:54.404Z,97.02
2023-02-12T05:07:21.858Z,96.97
2023-02-12T05:10:49.112Z,96.86
2023-02-12T05:14:16.872Z,97.09
2023-02-12T05:17:45.870Z,97.01
2023-02-12T05:21:13.658Z,96.94
2023-02-12T05:24:41.428Z,96.88
2023-02-12T05:28:08.971Z,97.00
2023-02-12T05:31:37.200Z,96.95
2023-02-12T05:35:04.610Z,96.95
2023-02-12T05:38:31.822Z,97.24
2023-02-12T05:41:59.346Z,97.19
2023-02-12T05:45:28.157Z,97.11
2023-02-12T05:48:56.034Z,97.10
2023-02-12T05:52:26.309Z,96.92
2023-02-12T05:55:53.847Z,97.01
2023-02-12T05:59:24.041Z,96.91
2023-02-12T06:03:11.613Z,96.94
2023-02-12T06:06:42.285Z,96.73
2023-02-12T06:10:12.109Z,96.93
2023-02-12T06:13:39.511Z,96.98
2023-02-12T06:17:06.718Z,96.87
2023-02-12T06:20:34.184Z,96.86
2023-02-12T06:24:01.376Z,96.87
2023-02-12T06:27:28.822Z,96.73
2023-02-12T06:30:56.052Z,96.89
2023-02-12T06:34:24.039Z,96.88
2023-02-12T06:37:51.319Z,97.08
2023-02-12T06:41:21.360Z,96.92
2023-02-12T06:44:51.306Z,97.06
2023-02-12T06:48:19.921Z,97.25
2023-02-12T06:51:47.119Z,97.06
2023-02-12T06:55:14.391Z,96.93
2023-02-12T06:58:43.373Z,97.13
2023-02-12T07:02:12.527Z,97.21
2023-02-12T07:05:42.043Z,97.25
2023-02-12T07:09:16.922Z,97.09
2023-02-12T07:12:44.348Z,97.08
2023-02-12T07:16:14.010Z,97.11
2023-02-12T07:19:41.276Z,96.96
2023-02-12T07:23:29.380Z,96.82
2023-02-12T07:26:56.682Z,97.07
2023-02-12T07:30:27.169Z,97.09
2023-02-12T07:33:57.072Z,96.97
2023-02-12T07:37:24.387Z,96.83
2023-02-12T07:40:51.848Z,96.80
2023-02-12T07:44:19.440Z,96.49
2023-02-12T07:47:46.883Z,96.38
2023-02-12T07:51:16.109Z,96.22
2023-02-12T07:54:43.387Z,95.91
2023-02-12T07:58:21.787Z,95.91
2023-02-12T08:01:51.394Z,96.02
2023-02-12T08:05:18.616Z,95.96
2023-02-12T08:08:46.112Z,95.80
2023-02-12T08:12:13.411Z,95.79
2023-02-12T08:15:40.685Z,95.71
2023-02-12T08:19:17.900Z,95.81
2023-02-12T08:22:46.287Z,95.84
2023-02-12T08:26:16.209Z,96.23
2023-02-12T08:29:43.499Z,95.84
2023-02-12T08:33:10.867Z,95.99
2023-02-12T08:36:41.375Z,96.09
2023-02-12T08:40:10.776Z,95.91
2023-02-12T08:43:38.675Z,95.95
2023-02-12T08:47:16.053Z,96.17
2023-02-12T08:50:43.210Z,95.68
2023-02-12T08:54:14.384Z,95.94
2023-02-12T08:57:43.275Z,95.89
2023-02-12T09:01:16.227Z,95.79
2023-02-12T09:04:46.256Z,96.11
2023-02-12T09:08:16.705Z,96.48
2023-02-12T09:11:45.164Z,96.12
2023-02-12T09:15:13.117Z,95.88
2023-02-12T09:18:41.317Z,95.89
2023-02-12T09:22:08.595Z,95.83
2023-02-12T09:25:36.838Z,96.02
2023-02-12T09:29:05.139Z,95.95
2023-02-12T09:32:32.513Z,95.71
2023-02-12T09:36:04.552Z,96.13
2023-02-12T09:39:32.453Z,95.64
2023-02-12T09:43:13.408Z,96.10
2023-02-12T09:46:48.958Z,95.70
2023-02-12T09:50:34.772Z,95.51
2023-02-12T09:54:07.473Z,95.81
2023-02-12T09:57:37.347Z,96.02
2023-02-12T10:01:12.156Z,95.97
2023-02-12T10:04:58.711Z,96.10
2023-02-12T10:08:41.175Z,95.96
2023-02-12T10:12:20.180Z,95.85
2023-02-12T10:15:55.685Z,95.63
2023-02-12T10:19:36.964Z,95.37
2023-02-12T10:23:17.676Z,95.07
2023-02-12T10:26:49.181Z,95.39
2023-02-12T10:30:24.119Z,95.02
2023-02-12T10:33:54.278Z,95.13
2023-02-12T10:37:33.621Z,95.10
2023-02-12T10:41:02.062Z,94.75
2023-02-12T10:44:29.857Z,94.52
2023-02-12T10:48:09.011Z,94.69
2023-02-12T10:51:54.962Z,94.76
2023-02-12T10:55:32.317Z,94.36
2023-02-12T10:59:01.577Z,94.74
2023-02-12T11:02:33.410Z,94.56
2023-02-12T11:06:17.146Z,94.30
2023-02-12T11:09:49.537Z,94.25
2023-02-12T11:13:26.627Z,94.12
2023-02-12T11:16:58.541Z,93.83
2023-02-12T11:20:30.195Z,93.95
2023-02-12T11:23:58.098Z,93.93
2023-02-12T11:27:28.752Z,93.90
2023-02-12T11:30:58.711Z,94.22
2023-02-12T11:34:26.692Z,93.89
2023-02-12T11:37:55.552Z,93.95
2023-02-12T11:41:37.333Z,93.97
2023-02-12T11:45:08.567Z,93.81
2023-02-12T11:48:41.631Z,93.63
2023-02-12T11:52:18.860Z,93.80
2023-02-12T11:55:57.507Z,93.75
2023-02-12T11:59:34.205Z,94.00
2023-02-12T12:03:08.144Z,93.82
2023-02-12T12:06:42.633Z,93.77
2023-02-12T12:10:20.660Z,93.73
2023-02-12T12:13:52.326Z,93.97
2023-02-12T12:17:37.642Z,94.05
2023-02-12T12:21:12.930Z,94.31
2023-02-12T12:24:49.541Z,93.99
2023-02-12T12:28:31.802Z,93.27
2023-02-12T12:32:02.310Z,93.41
2023-02-12T12:35:41.794Z,93.10
2023-02-12T12:39:23.302Z,92.99
2023-02-12T12:43:15.297Z,92.94
2023-02-12T12:46:56.872Z,92.77
2023-02-12T12:50:44.380Z,92.94
2023-02-12T12:54:41.755Z,92.91
2023-02-12T12:58:20.746Z,92.95
2023-02-12T13:02:09.278Z,93.08
2023-02-12T13:06:17.587Z,92.88
2023-02-12T13:09:59.713Z,92.88
2023-02-12T13:13:34.470Z,92.94
2023-02-12T13:17:19.805Z,93.04
2023-02-12T13:20:53.754Z,93.10
2023-02-12T13:24:31.925Z,92.96
2023-02-12T13:28:01.142Z,92.66
2023-02-12T13:31:47.173Z,92.74
2023-02-12T13:35:21.024Z,92.99
2023-02-12T13:38:57.473Z,92.94
2023-02-12T13:42:38.491Z,92.69
2023-02-12T13:46:16.351Z,92.93
2023-02-12T13:50:01.343Z,93.12
2023-02-12T13:53:40.906Z,93.34
2023-02-12T13:57:14.926Z,93.54
2023-02-12T14:01:07.792Z,93.79
2023-02-12T14:04:38.061Z,93.72
2023-02-12T14:08:35.960Z,93.62
2023-02-12T14:12:16.534Z,93.96
2023-02-12T14:16:22.786Z,93.89
2023-02-12T14:20:08.875Z,93.88
2023-02-12T14:23:36.402Z,93.91
2023-02-12T14:27:04.224Z,94.15
2023-02-12T14:30:39.191Z,94.05
2023-02-12T14:34:50.467Z,93.94
2023-02-12T14:39:02.929Z,93.54
2023-02-12T14:42:58.033Z,93.62
2023-02-12T14:46:48.971Z,93.56
2023-02-12T14:50:24.160Z,93.61
2023-02-12T14:53:55.667Z,93.67
2023-02-12T14:57:28.804Z,93.86
2023-02-12T15:01:02.407Z,93.90
2023-02-12T15:04:34.942Z,94.10
2023-02-12T15:08:08.241Z,93.94
2023-02-12T15:11:48.215Z,93.91
2023-02-12T15:15:27.045Z,94.32
2023-02-12T15:19:01.009Z,93.88
2023-02-12T15:22:32.136Z,94.03
2023-02-12T15:26:00.371Z,94.31
2023-02-12T15:29:33.036Z,94.23
2023-02-12T15:33:04.502Z,94.18
2023-02-12T15:36:38.108Z,94.22
2023-02-12T15:40:08.797Z,94.34
2023-02-12T15:43:43.383Z,94.36
2023-02-12T15:47:17.188Z,94.43
2023-02-12T15:50:58.274Z,94.45
2023-02-12T15:54:26.312Z,94.62
2023-02-12T15:57:55.053Z,94.49
2023-02-12T16:01:28.023Z,94.71
2023-02-12T16:05:18.366Z,94.82
2023-02-12T16:08:47.966Z,94.65
2023-02-12T16:12:19.211Z,94.46
2023-02-12T16:15:46.822Z,94.54
2023-02-12T16:19:22.781Z,94.47
2023-02-12T16:22:53.548Z,94.77
2023-02-12T16:26:30.517Z,94.68
2023-02-12T16:30:00.539Z,94.59
2023-02-12T16:33:45.515Z,94.81
2023-02-12T16:41:28.032Z,94.52
2023-02-12T16:44:59.075Z,94.77
2023-02-12T16:48:43.854Z,94.92
2023-02-12T16:52:35.046Z,94.81
2023-02-12T16:56:03.897Z,94.70
2023-02-12T16:59:31.507Z,94.67
2023-02-12T17:02:59.470Z,94.81
2023-02-12T17:06:29.161Z,94.84
2023-02-12T17:09:59.071Z,94.83
2023-02-12T17:13:26.254Z,94.59
2023-02-12T17:16:53.542Z,94.95
2023-02-12T17:20:24.254Z,94.88
2023-02-12T17:23:53.900Z,95.05
2023-02-12T17:27:32.324Z,95.04
2023-02-12T17:31:02.680Z,95.35
2023-02-12T17:34:34.126Z,95.31
2023-02-12T17:38:17.344Z,95.52
2023-02-12T17:41:45.316Z,95.24
2023-02-12T17:45:14.975Z,95.46
2023-02-12T17:48:45.064Z,95.90
2023-02-12T17:52:15.282Z,95.78
2023-02-12T17:55:52.549Z,96.16
2023-02-12T17:59:20.360Z,95.88
2023-02-12T18:02:50.895Z,95.89
2023-02-12T18:06:24.520Z,96.15
2023-02-12T18:09:51.751Z,96.46
2023-02-12T18:13:22.084Z,96.45
2023-02-12T18:16:52.249Z,96.44
2023-02-12T18:20:29.629Z,96.46
2023-02-12T18:23:59.814Z,96.73
2023-02-12T18:27:27.160Z,96.81
2023-02-12T18:31:05.930Z,97.11
2023-02-12T18:34:33.343Z,97.20
2023-02-12T18:38:00.983Z,97.31
2023-02-12T18:41:30.307Z,97.20
2023-02-12T18:44:57.833Z,97.61
2023-02-12T18:48:27.253Z,98.00
2023-02-12T18:51:54.726Z,98.18
2023-02-12T18:55:21.883Z,98.52
2023-02-12T18:58:49.196Z,98.62
2023-02-12T19:02:16.923Z,98.39
2023-02-12T19:05:44.432Z,98.16
2023-02-12T19:09:13.472Z,98.51
2023-02-12T19:12:40.678Z,98.59
2023-02-12T19:16:13.738Z,98.66
2023-02-12T19:19:41.019Z,98.70
2023-02-12T19:23:08.252Z,98.58
2023-02-12T19:26:46.496Z,98.59
2023-02-12T19:30:14.997Z,98.78
2023-02-12T19:33:42.249Z,98.53
2023-02-12T19:37:11.688Z,98.92
2023-02-12T19:40:47.546Z,98.69
2023-02-12T19:44:18.857Z,98.78
2023-02-12T19:47:46.372Z,98.65
2023-02-12T19:51:18.351Z,98.68
2023-02-12T19:54:48.385Z,98.78
2023-02-12T19:58:15.713Z,98.69
2023-02-12T20:01:46.283Z,99.02
2023-02-12T20:05:13.689Z,98.84
2023-02-12T20:08:41.947Z,98.98
2023-02-12T20:12:09.795Z,98.88
2023-02-12T20:15:38.008Z,98.85
2023-02-12T20:19:07.920Z,98.93
2023-02-12T20:22:36.917Z,99.06
2023-02-12T20:26:09.883Z,98.77
2023-02-12T20:29:35.608Z,98.94
2023-02-12T20:33:02.737Z,98.90
2023-02-12T20:36:34.030Z,98.83
2023-02-12T20:40:01.279Z,98.95
2023-02-12T20:43:28.652Z,99.19
2023-02-12T20:46:57.361Z,99.04
2023-02-12T20:50:34.004Z,99.36
2023-02-12T20:54:03.486Z,99.22
2023-02-12T20:57:34.887Z,99.56
2023-02-12T21:01:08.202Z,99.32
2023-02-12T21:04:35.818Z,99.49
2023-02-12T21:08:03.161Z,99.44
2023-02-12T21:11:30.990Z,99.56
2023-02-12T21:14:58.299Z,99.48
2023-02-12T21:18:27.096Z,99.60
2023-02-12T21:21:54.564Z,99.56
2023-02-12T21:25:21.975Z,99.50
2023-02-12T21:28:49.539Z,99.84
2023-02-12T21:32:16.856Z,99.92
2023-02-12T21:35:44.428Z,99.94
2023-02-12T21:39:14.791Z,99.98
2023-02-12T21:42:41.970Z,99.99
2023-02-12T21:46:15.429Z,99.98
2023-02-12T21:49:43.256Z,100.00
2023-02-12T21:53:10.594Z,100.00
2023-02-12T21:56:42.506Z,100.00
2023-02-12T22:00:12.379Z,100.00
2023-02-12T22:03:44.081Z,100.00
2023-02-12T22:07:11.474Z,99.96
2023-02-12T22:10:38.863Z,100.00
2023-02-12T22:14:07.388Z,100.00
2023-02-12T22:17:35.781Z,100.00
2023-02-12T22:21:05.960Z,100.00
2023-02-12T22:24:37.353Z,100.00
2023-02-12T22:28:24.942Z,100.00
2023-02-12T22:31:52.349Z,99.97
2023-02-12T22:35:20.256Z,100.00
2023-02-12T22:38:47.660Z,100.00
2023-02-12T22:42:17.540Z,100.00
2023-02-12T22:45:46.001Z,100.00
2023-02-12T22:49:13.606Z,100.00
2023-02-12T22:52:43.746Z,99.99
2023-02-12T22:56:11.889Z,100.00
2023-02-12T22:59:39.346Z,100.00
2023-02-12T23:03:07.157Z,99.99
2023-02-12T23:06:44.012Z,100.00
2023-02-12T23:10:12.777Z,99.92
2023-02-12T23:13:42.947Z,99.83
2023-02-12T23:17:10.360Z,99.92
2023-02-12T23:20:37.643Z,99.80
2023-02-12T23:24:04.993Z,99.76
2023-02-12T23:27:32.339Z,99.83
2023-02-12T23:31:00.504Z,99.85
2023-02-12T23:34:28.173Z,99.82
2023-02-12T23:37:55.805Z,99.90
2023-02-12T23:41:23.055Z,99.53
2023-02-12T23:44:50.394Z,99.58
2023-02-12T23:48:17.726Z,99.76
2023-02-12T23:51:46.378Z,99.70
2023-02-12T23:55:25.373Z,99.87
2023-02-12T23:59:12.875Z,99.81
